createdAt,value
2022-10-11T00:02:06.143Z,4.32
2022-10-11T00:04:32.851Z,4.47
2022-10-11T00:06:59.659Z,5.13
2022-10-11T00:09:26.486Z,5.27
2022-10-11T00:11:56.164Z,5.38
2022-10-11T00:14:24.527Z,6.38
2022-10-11T00:16:51.591Z,5.78
2022-10-11T00:19:18.402Z,6.00
2022-10-11T00:21:45.330Z,5.80
2022-10-11T00:24:12.389Z,5.47
2022-10-11T00:26:43.188Z,5.57
2022-10-11T00:29:12.838Z,5.57
2022-10-11T00:31:40.479Z,4.88
2022-10-11T00:34:07.509Z,4.63
2022-10-11T00:36:34.247Z,4.50
2022-10-11T00:39:01.035Z,4.85
2022-10-11T00:41:27.742Z,4.65
2022-10-11T00:44:15.298Z,5.53
2022-10-11T00:46:45.810Z,4.50
2022-10-11T00:49:19.598Z,4.80
2022-10-11T00:51:51.502Z,4.22
2022-10-11T00:54:22.189Z,4.43
2022-10-11T00:56:53.813Z,4.70
2022-10-11T00:59:25.095Z,4.40
2022-10-11T01:01:52.291Z,4.38
2022-10-11T01:04:19.106Z,4.05
2022-10-11T01:06:47.251Z,4.40
2022-10-11T01:09:14.439Z,4.22
2022-10-11T01:11:43.418Z,4.13
2022-10-11T01:14:10.125Z,4.00
2022-10-11T01:16:52.669Z,4.30
2022-10-11T01:19:40.289Z,4.60
2022-10-11T01:22:45.632Z,3.80
2022-10-11T01:25:19.405Z,4.40
2022-10-11T01:27:59.804Z,4.53
2022-10-11T01:30:29.554Z,4.80
2022-10-11T01:33:02.062Z,4.50
2022-10-11T01:35:38.429Z,4.35
2022-10-11T01:38:27.255Z,4.07
2022-10-11T01:40:59.922Z,4.32
2022-10-11T01:43:28.414Z,4.80
2022-10-11T01:45:57.997Z,4.85
2022-10-11T01:48:24.717Z,4.57
2022-10-11T01:50:58.609Z,4.90
2022-10-11T01:53:55.074Z,5.00
2022-10-11T01:56:44.711Z,5.43
2022-10-11T01:59:20.123Z,4.88
2022-10-11T02:02:01.054Z,5.30
2022-10-11T02:04:32.903Z,5.20
2022-10-11T02:07:10.926Z,5.20
2022-10-11T02:10:08.049Z,4.90
2022-10-11T02:12:42.092Z,4.80
2022-10-11T02:15:10.886Z,5.47
2022-10-11T02:17:43.063Z,7.27
2022-10-11T02:20:15.187Z,6.30
2022-10-11T02:22:45.971Z,5.75
2022-10-11T02:25:17.814Z,5.65
2022-10-11T02:27:47.631Z,5.45
2022-10-11T02:30:15.826Z,5.03
2022-10-11T02:32:44.772Z,4.80
2022-10-11T02:35:12.008Z,5.35
2022-10-11T02:37:50.682Z,5.32
2022-10-11T02:40:32.084Z,4.80
2022-10-11T02:43:24.089Z,4.67
2022-10-11T02:46:00.285Z,4.50
2022-10-11T02:48:29.294Z,5.15
2022-10-11T02:50:57.366Z,5.35
2022-10-11T02:53:25.511Z,4.95
2022-10-11T02:55:53.958Z,5.10
2022-10-11T02:58:20.900Z,5.13
2022-10-11T03:00:47.975Z,5.05
2022-10-11T03:03:14.947Z,5.20
2022-10-11T03:05:41.786Z,5.60
2022-10-11T03:08:10.200Z,5.27
2022-10-11T03:10:37.983Z,6.07
2022-10-11T03:13:04.746Z,8.02
2022-10-11T03:15:31.655Z,11.85
2022-10-11T03:17:59.727Z,9.40
2022-10-11T03:20:26.683Z,11.63
2022-10-11T03:22:53.606Z,11.27
2022-10-11T03:25:20.353Z,9.60
2022-10-11T03:27:47.040Z,7.03
2022-10-11T03:30:17.897Z,7.40
2022-10-11T03:32:44.995Z,7.83
2022-10-11T03:35:11.675Z,8.48
2022-10-11T03:37:38.491Z,9.30
2022-10-11T03:40:08.921Z,8.73
2022-10-11T03:42:35.969Z,9.32
2022-10-11T03:45:05.062Z,8.93
2022-10-11T03:47:32.276Z,8.85
2022-10-11T03:49:59.003Z,8.70
2022-10-11T03:52:25.865Z,8.15
2022-10-11T03:54:52.838Z,8.65
2022-10-11T03:57:19.878Z,8.97
2022-10-11T03:59:46.718Z,9.20
2022-10-11T04:02:14.052Z,8.88
2022-10-11T04:04:40.779Z,8.48
2022-10-11T04:07:07.911Z,9.07
2022-10-11T04:09:34.874Z,7.97
2022-10-11T04:12:01.819Z,7.28
2022-10-11T04:14:28.548Z,6.90
2022-10-11T04:16:58.408Z,5.65
2022-10-11T04:19:27.263Z,6.00
2022-10-11T04:21:53.947Z,6.23
2022-10-11T04:24:20.767Z,5.70
2022-10-11T04:26:47.698Z,6.68
2022-10-11T04:29:14.426Z,6.93
2022-10-11T04:31:41.138Z,6.45
2022-10-11T04:34:07.826Z,7.37
2022-10-11T04:36:34.581Z,7.18
2022-10-11T04:39:01.887Z,7.13
2022-10-11T04:41:29.470Z,6.88
2022-10-11T04:43:56.283Z,7.20
2022-10-11T04:46:23.707Z,7.97
2022-10-11T04:48:50.764Z,9.02
2022-10-11T04:51:18.371Z,13.27
2022-10-11T04:53:45.141Z,12.63
2022-10-11T04:56:12.224Z,27.83
2022-10-11T04:58:42.891Z,16.10
2022-10-11T05:01:10.717Z,8.93
2022-10-11T05:03:37.908Z,8.30
2022-10-11T05:06:06.191Z,9.48
2022-10-11T05:08:33.912Z,11.18
2022-10-11T05:11:04.208Z,11.77
2022-10-11T05:13:32.244Z,10.10
2022-10-11T05:15:59.120Z,8.75
2022-10-11T05:18:27.261Z,8.68
2022-10-11T05:21:09.108Z,8.65
2022-10-11T05:23:37.284Z,9.60
2022-10-11T05:26:04.801Z,10.00
2022-10-11T05:28:31.997Z,9.05
2022-10-11T05:30:59.177Z,7.80
2022-10-11T05:33:26.356Z,7.70
2022-10-11T05:35:53.287Z,6.70
2022-10-11T05:38:20.237Z,6.78
2022-10-11T05:40:47.031Z,7.65
2022-10-11T05:43:13.805Z,8.50
2022-10-11T05:45:42.705Z,8.00
2022-10-11T05:48:10.350Z,7.37
2022-10-11T05:50:38.323Z,7.32
2022-10-11T05:53:06.115Z,7.50
2022-10-11T05:55:40.957Z,8.13
2022-10-11T05:58:10.232Z,7.95
2022-10-11T06:00:38.127Z,8.00
2022-10-11T06:03:10.948Z,7.88
2022-10-11T06:05:37.743Z,7.70
2022-10-11T06:08:06.699Z,8.00
2022-10-11T06:10:33.530Z,7.82
2022-10-11T06:13:00.321Z,7.90
2022-10-11T06:15:27.228Z,7.57
2022-10-11T06:17:54.382Z,7.30
2022-10-11T06:20:21.249Z,7.80
2022-10-11T06:22:48.035Z,7.55
2022-10-11T06:25:14.895Z,6.97
2022-10-11T06:27:41.593Z,6.95
2022-10-11T06:30:08.788Z,7.55
2022-10-11T06:32:35.474Z,8.55
2022-10-11T06:35:03.516Z,8.52
2022-10-11T06:37:30.360Z,7.47
2022-10-11T06:39:57.063Z,7.63
2022-10-11T06:42:23.970Z,7.10
2022-10-11T06:44:50.692Z,6.43
2022-10-11T06:47:17.393Z,5.30
2022-10-11T06:49:44.093Z,4.83
2022-10-11T06:52:10.907Z,4.97
2022-10-11T06:54:41.163Z,5.28
2022-10-11T06:57:10.127Z,5.53
2022-10-11T06:59:36.939Z,4.32
2022-10-11T07:02:03.648Z,5.53
2022-10-11T07:04:30.465Z,5.75
2022-10-11T07:06:57.306Z,5.68
2022-10-11T07:09:24.098Z,5.75
2022-10-11T07:11:51.184Z,5.90
2022-10-11T07:14:17.877Z,5.40
2022-10-11T07:16:44.611Z,5.88
2022-10-11T07:19:11.366Z,5.53
2022-10-11T07:21:38.101Z,4.60
2022-10-11T07:24:05.225Z,5.22
2022-10-11T07:26:38.219Z,4.83
2022-10-11T07:29:08.091Z,5.93
2022-10-11T07:31:39.810Z,4.97
2022-10-11T07:34:06.486Z,4.88
2022-10-11T07:36:33.308Z,5.28
2022-10-11T07:39:00.182Z,5.03
2022-10-11T07:41:27.038Z,5.05
2022-10-11T07:43:54.977Z,4.80
2022-10-11T07:46:22.850Z,5.55
2022-10-11T07:48:52.838Z,4.88
2022-10-11T07:51:22.740Z,5.27
2022-10-11T07:53:51.995Z,4.80
2022-10-11T07:56:22.653Z,5.88
2022-10-11T07:58:51.437Z,4.90
2022-10-11T08:01:18.821Z,4.97
2022-10-11T08:03:45.943Z,5.00
2022-10-11T08:06:15.115Z,5.38
2022-10-11T08:08:41.952Z,5.28
2022-10-11T08:11:08.836Z,5.57
2022-10-11T08:13:35.814Z,5.13
2022-10-11T08:16:11.114Z,5.37
2022-10-11T08:18:38.369Z,5.85
2022-10-11T08:21:13.855Z,5.57
2022-10-11T08:23:40.670Z,4.80
2022-10-11T08:26:08.687Z,4.80
2022-10-11T08:28:36.040Z,4.77
2022-10-11T08:31:03.462Z,5.18
2022-10-11T08:33:31.036Z,5.55
2022-10-11T08:35:58.523Z,4.60
2022-10-11T08:38:25.483Z,4.72
2022-10-11T08:40:55.713Z,4.57
2022-10-11T08:43:28.197Z,4.38
2022-10-11T08:45:58.374Z,4.30
2022-10-11T08:48:38.170Z,4.68
2022-10-11T08:51:22.872Z,4.78
2022-10-11T08:54:07.187Z,4.83
2022-10-11T08:56:37.758Z,4.28
2022-10-11T08:59:07.111Z,4.28
2022-10-11T09:01:34.056Z,5.10
2022-10-11T09:04:00.766Z,5.30
2022-10-11T09:06:32.678Z,4.97
2022-10-11T09:09:20.973Z,4.70
2022-10-11T09:11:47.675Z,3.92
2022-10-11T09:14:29.339Z,4.40
2022-10-11T09:17:22.965Z,4.68
2022-10-11T09:20:11.036Z,5.07
2022-10-11T09:23:15.063Z,5.22
2022-10-11T09:26:09.876Z,5.13
2022-10-11T09:29:00.946Z,4.63
2022-10-11T09:31:28.723Z,4.07
2022-10-11T09:33:56.030Z,4.47
2022-10-11T09:36:36.140Z,3.85
2022-10-11T09:39:10.214Z,4.00
2022-10-11T09:42:10.683Z,3.85
2022-10-11T09:44:51.939Z,4.00
2022-10-11T09:47:30.090Z,3.93
2022-10-11T09:49:58.168Z,4.43
2022-10-11T09:52:25.774Z,3.50
2022-10-11T09:54:59.937Z,3.65
2022-10-11T09:57:35.950Z,4.00
2022-10-11T10:00:22.143Z,3.80
2022-10-11T10:02:50.538Z,4.40
2022-10-11T10:05:21.844Z,4.10
2022-10-11T10:08:09.937Z,4.10
2022-10-11T10:11:07.327Z,4.07
2022-10-11T10:13:56.050Z,4.20
2022-10-11T10:16:28.798Z,3.70
2022-10-11T10:18:57.963Z,3.70
2022-10-11T10:21:28.670Z,3.78
2022-10-11T10:23:57.530Z,3.97
2022-10-11T10:26:26.402Z,5.03
2022-10-11T10:29:05.360Z,4.50
2022-10-11T10:32:12.885Z,5.32
2022-10-11T10:34:40.185Z,5.28
2022-10-11T10:37:18.133Z,5.72
2022-10-11T10:39:48.194Z,5.83
2022-10-11T10:42:18.650Z,5.82
2022-10-11T10:44:53.067Z,6.13
2022-10-11T10:48:06.280Z,6.07
2022-10-11T10:50:48.767Z,6.25
2022-10-11T10:53:42.070Z,5.47
2022-10-11T10:56:47.775Z,5.80
2022-10-11T10:59:34.555Z,5.60
2022-10-11T11:02:46.135Z,5.78
2022-10-11T11:05:38.826Z,6.30
2022-10-11T11:08:27.134Z,5.90
2022-10-11T11:11:12.060Z,5.65
2022-10-11T11:14:11.518Z,6.03
2022-10-11T11:16:48.524Z,6.47
2022-10-11T11:19:39.901Z,6.22
2022-10-11T11:22:49.123Z,6.33
2022-10-11T11:25:18.546Z,6.18
2022-10-11T11:27:50.927Z,6.38
2022-10-11T11:30:36.566Z,6.28
2022-10-11T11:33:22.415Z,6.18
2022-10-11T11:35:53.367Z,6.70
2022-10-11T11:38:29.422Z,6.18
2022-10-11T11:41:06.026Z,6.57
2022-10-11T11:43:38.283Z,6.78
2022-10-11T11:46:09.598Z,6.43
2022-10-11T11:48:38.847Z,6.53
2022-10-11T11:51:17.675Z,6.68
2022-10-11T11:54:16.634Z,7.18
2022-10-11T11:56:59.470Z,7.47
2022-10-11T11:59:44.310Z,7.05
2022-10-11T12:02:40.530Z,6.97
2022-10-11T12:05:09.525Z,7.07
2022-10-11T12:08:28.299Z,7.50
2022-10-11T12:11:00.411Z,7.80
2022-10-11T12:13:34.727Z,7.53
2022-10-11T12:16:12.327Z,7.27
2022-10-11T12:18:53.759Z,8.05
2022-10-11T12:21:30.134Z,8.18
2022-10-11T12:24:11.903Z,7.15
2022-10-11T12:26:41.947Z,7.43
2022-10-11T12:29:18.225Z,7.20
2022-10-11T12:31:50.307Z,7.65
2022-10-11T12:37:19.664Z,7.45
2022-10-11T12:39:56.020Z,7.72
2022-10-11T12:42:31.894Z,7.40
2022-10-11T12:45:13.618Z,7.47
2022-10-11T12:47:43.131Z,7.20
2022-10-11T12:50:21.658Z,7.80
2022-10-11T12:53:09.646Z,7.45
2022-10-11T12:56:07.501Z,8.30
2022-10-11T12:58:41.246Z,7.03
2022-10-11T13:01:12.910Z,7.55
2022-10-11T13:03:42.530Z,8.52
2022-10-11T13:06:33.311Z,7.57
2022-10-11T13:09:18.011Z,7.80
2022-10-11T13:11:55.279Z,8.23
2022-10-11T13:14:25.269Z,6.85
2022-10-11T13:17:04.028Z,6.82
2022-10-11T13:19:37.079Z,7.63
2022-10-11T13:22:15.161Z,6.60
2022-10-11T13:24:42.618Z,6.75
2022-10-11T13:27:19.622Z,6.70
2022-10-11T13:29:47.820Z,6.72
2022-10-11T13:32:19.662Z,6.80
2022-10-11T13:34:49.166Z,7.17
2022-10-11T13:37:19.920Z,7.00
2022-10-11T13:39:48.989Z,7.00
2022-10-11T13:42:17.629Z,6.75
2022-10-11T13:44:46.359Z,7.20
2022-10-11T13:47:15.710Z,7.50
2022-10-11T13:49:47.786Z,7.20
2022-10-11T13:52:20.199Z,7.05
2022-10-11T13:55:07.825Z,6.82
2022-10-11T13:58:02.894Z,6.70
2022-10-11T14:00:36.536Z,6.70
2022-10-11T14:03:15.303Z,7.38
2022-10-11T14:05:51.797Z,6.60
2022-10-11T14:08:21.599Z,6.97
2022-10-11T14:10:52.855Z,6.40
2022-10-11T14:13:30.289Z,6.87
2022-10-11T14:15:59.714Z,7.25
2022-10-11T14:18:44.555Z,7.30
2022-10-11T14:21:20.458Z,7.22
2022-10-11T14:23:50.818Z,7.28
2022-10-11T14:26:19.183Z,6.90
2022-10-11T14:28:57.754Z,7.05
2022-10-11T14:31:28.509Z,7.50
2022-10-11T14:33:55.854Z,6.80
2022-10-11T14:36:23.208Z,7.57
2022-10-11T14:38:51.623Z,6.77
2022-10-11T14:41:18.687Z,7.05
2022-10-11T14:43:45.410Z,7.75
2022-10-11T14:46:24.411Z,7.95
2022-10-11T14:48:56.205Z,7.88
2022-10-11T14:51:29.116Z,7.70
2022-10-11T14:53:55.883Z,8.35
2022-10-11T14:56:22.777Z,7.70
2022-10-11T14:58:49.695Z,7.60
2022-10-11T15:01:17.613Z,7.53
2022-10-11T15:03:44.559Z,7.37
2022-10-11T15:06:18.603Z,7.93
2022-10-11T15:08:45.811Z,8.35
2022-10-11T15:11:15.423Z,17.92
2022-10-11T15:13:42.207Z,12.27
2022-10-11T15:16:11.898Z,7.37
2022-10-11T15:18:39.314Z,7.60
2022-10-11T15:21:06.678Z,7.20
2022-10-11T15:23:33.447Z,7.63
2022-10-11T15:26:00.410Z,7.28
2022-10-11T15:28:29.412Z,7.17
2022-10-11T15:30:56.628Z,7.60
2022-10-11T15:33:24.875Z,7.75
2022-10-11T15:35:51.903Z,6.95
2022-10-11T15:38:21.363Z,7.20
2022-10-11T15:40:48.843Z,7.30
2022-10-11T15:43:18.814Z,7.47
2022-10-11T15:45:48.819Z,7.70
2022-10-11T15:48:21.358Z,8.00
2022-10-11T15:50:50.110Z,7.93
2022-10-11T15:53:19.494Z,7.40
2022-10-11T15:55:51.907Z,7.80
2022-10-11T15:58:28.146Z,8.70
2022-10-11T16:00:57.303Z,7.82
2022-10-11T16:03:26.469Z,9.27
2022-10-11T16:05:54.571Z,11.40
2022-10-11T16:08:23.208Z,9.95
2022-10-11T16:10:52.037Z,10.63
2022-10-11T16:13:19.436Z,10.40
2022-10-11T16:15:48.683Z,9.25
2022-10-11T16:18:20.570Z,9.93
2022-10-11T16:20:48.838Z,9.20
2022-10-11T16:23:15.922Z,9.10
2022-10-11T16:25:43.947Z,9.52
2022-10-11T16:28:11.013Z,9.70
2022-10-11T16:30:45.807Z,9.80
2022-10-11T16:33:12.608Z,10.05
2022-10-11T16:35:43.618Z,12.00
2022-10-11T16:38:10.997Z,12.70
2022-10-11T16:40:39.965Z,11.90
2022-10-11T16:43:08.568Z,12.37
2022-10-11T16:45:36.885Z,11.32
2022-10-11T16:48:04.852Z,21.38
2022-10-11T16:50:36.853Z,11.70
2022-10-11T16:53:06.154Z,11.35
2022-10-11T16:55:32.912Z,11.63
2022-10-11T16:57:59.730Z,10.63
2022-10-11T17:00:26.445Z,10.30
2022-10-11T17:02:53.187Z,10.80
2022-10-11T17:05:19.979Z,10.98
2022-10-11T17:07:46.767Z,10.53
2022-10-11T17:10:13.561Z,10.48
2022-10-11T17:12:40.338Z,10.43
2022-10-11T17:15:07.655Z,12.68
2022-10-11T17:17:34.371Z,11.10
2022-10-11T17:20:02.384Z,11.40
2022-10-11T17:22:29.343Z,12.50
2022-10-11T17:24:56.119Z,14.05
2022-10-11T17:27:23.027Z,14.43
2022-10-11T17:29:49.676Z,12.50
2022-10-11T17:32:16.338Z,11.60
2022-10-11T17:34:43.178Z,12.43
2022-10-11T17:37:10.144Z,11.70
2022-10-11T17:39:36.918Z,12.07
2022-10-11T17:42:07.443Z,11.45
2022-10-11T17:44:35.638Z,11.23
2022-10-11T17:47:02.862Z,11.32
2022-10-11T17:49:31.431Z,11.43
2022-10-11T17:51:58.825Z,11.90
2022-10-11T17:54:26.113Z,12.23
2022-10-11T17:56:55.155Z,12.07
2022-10-11T17:59:22.962Z,12.25
2022-10-11T18:01:54.303Z,12.23
2022-10-11T18:04:22.599Z,11.75
2022-10-11T18:06:49.585Z,11.57
2022-10-11T18:09:18.409Z,12.60
2022-10-11T18:11:45.799Z,15.48
2022-10-11T18:14:13.047Z,17.10
2022-10-11T18:16:40.603Z,18.15
2022-10-11T18:19:10.858Z,16.80
2022-10-11T18:21:38.003Z,17.93
2022-10-11T18:24:12.267Z,17.27
2022-10-11T18:26:39.824Z,15.07
2022-10-11T18:29:07.037Z,14.05
2022-10-11T18:31:35.372Z,15.05
2022-10-11T18:34:03.919Z,15.70
2022-10-11T18:36:31.954Z,20.27
2022-10-11T18:39:02.161Z,19.52
2022-10-11T18:41:33.412Z,20.52
2022-10-11T18:44:14.749Z,19.88
2022-10-11T18:46:46.147Z,19.90
2022-10-11T18:49:14.277Z,18.45
2022-10-11T18:51:43.229Z,16.75
2022-10-11T18:54:16.878Z,17.15
2022-10-11T18:56:47.528Z,16.63
2022-10-11T18:59:16.681Z,16.33
2022-10-11T19:01:52.048Z,16.02
2022-10-11T19:04:19.488Z,15.50
2022-10-11T19:06:48.111Z,15.70
2022-10-11T19:09:23.111Z,15.00
2022-10-11T19:11:51.666Z,15.27
2022-10-11T19:14:25.829Z,15.32
2022-10-11T19:16:53.293Z,15.48
2022-10-11T19:19:26.265Z,14.57
2022-10-11T19:21:53.986Z,17.10
2022-10-11T19:24:24.406Z,16.80
2022-10-11T19:26:53.135Z,13.38
2022-10-11T19:29:22.808Z,13.20
2022-10-11T19:31:55.755Z,13.15
2022-10-11T19:34:23.998Z,11.93
2022-10-11T19:36:52.806Z,12.00
2022-10-11T19:39:21.647Z,12.63
2022-10-11T19:41:49.071Z,14.05
2022-10-11T19:44:16.487Z,13.02
2022-10-11T19:46:51.574Z,12.63
2022-10-11T19:49:22.544Z,13.83
2022-10-11T19:51:49.927Z,14.23
2022-10-11T19:54:17.036Z,13.52
2022-10-11T19:56:44.714Z,15.52
2022-10-11T19:59:12.442Z,13.27
2022-10-11T20:01:40.075Z,14.17
2022-10-11T20:04:09.210Z,14.70
2022-10-11T20:06:40.433Z,14.18
2022-10-11T20:09:28.374Z,14.52
2022-10-11T20:11:56.956Z,15.68
2022-10-11T20:14:23.863Z,14.93
2022-10-11T20:16:50.909Z,14.35
2022-10-11T20:19:17.995Z,14.32
2022-10-11T20:21:45.278Z,14.57
2022-10-11T20:24:12.198Z,14.02
2022-10-11T20:26:39.378Z,15.20
2022-10-11T20:29:06.550Z,15.55
2022-10-11T20:31:34.782Z,15.43
2022-10-11T20:34:04.217Z,15.50
2022-10-11T20:36:33.068Z,16.48
2022-10-11T20:39:00.660Z,15.93
2022-10-11T20:41:31.612Z,16.33
2022-10-11T20:44:00.095Z,17.48
2022-10-11T20:46:29.996Z,16.98
2022-10-11T20:49:02.321Z,15.23
2022-10-11T20:51:34.856Z,15.83
2022-10-11T20:54:04.148Z,16.55
2022-10-11T20:56:31.240Z,16.10
2022-10-11T20:58:58.876Z,16.60
2022-10-11T21:01:28.841Z,16.80
2022-10-11T21:03:57.616Z,15.80
2022-10-11T21:06:24.507Z,15.82
2022-10-11T21:08:51.307Z,14.85
2022-10-11T21:11:18.135Z,14.18
2022-10-11T21:13:46.793Z,14.15
2022-10-11T21:16:16.011Z,13.43
2022-10-11T21:18:43.099Z,13.35
2022-10-11T21:21:12.670Z,12.77
2022-10-11T21:23:40.159Z,13.13
2022-10-11T21:26:10.164Z,15.60
2022-10-11T21:28:37.820Z,14.90
2022-10-11T21:31:23.768Z,14.77
2022-10-11T21:33:50.895Z,14.18
2022-10-11T21:36:22.146Z,14.52
2022-10-11T21:38:49.923Z,13.93
2022-10-11T21:41:22.691Z,14.13
2022-10-11T21:43:49.995Z,15.63
2022-10-11T21:47:01.723Z,14.63
2022-10-11T21:49:24.144Z,16.02
2022-10-11T21:51:51.257Z,15.18
2022-10-11T21:54:17.993Z,14.87
2022-10-11T21:56:44.835Z,13.75
2022-10-11T21:59:12.794Z,13.38
2022-10-11T22:01:41.243Z,13.20
2022-10-11T22:04:08.473Z,13.68
2022-10-11T22:06:36.397Z,13.53
2022-10-11T22:09:04.532Z,13.70
2022-10-11T22:11:31.287Z,13.43
2022-10-11T22:13:58.721Z,13.73
2022-10-11T22:16:25.454Z,12.70
2022-10-11T22:18:53.500Z,12.20
2022-10-11T22:21:22.726Z,12.95
2022-10-11T22:23:51.281Z,12.23
2022-10-11T22:26:23.342Z,12.15
2022-10-11T22:28:50.386Z,12.60
2022-10-11T22:31:19.681Z,12.67
2022-10-11T22:33:46.489Z,12.15
2022-10-11T22:36:13.913Z,12.95
2022-10-11T22:38:42.236Z,13.05
2022-10-11T22:41:09.882Z,12.73
2022-10-11T22:43:37.024Z,12.80
2022-10-11T22:46:04.544Z,12.05
2022-10-11T22:48:31.272Z,12.73
2022-10-11T22:50:57.988Z,11.85
2022-10-11T22:53:24.763Z,11.10
2022-10-11T22:55:51.554Z,11.60
2022-10-11T22:58:18.542Z,11.48
2022-10-11T23:00:45.483Z,10.90
2022-10-11T23:03:13.463Z,13.10
2022-10-11T23:05:40.368Z,12.88
2022-10-11T23:08:09.528Z,13.10
2022-10-11T23:10:40.367Z,12.40
2022-10-11T23:13:07.545Z,14.07
2022-10-11T23:15:34.226Z,13.27
2022-10-11T23:18:00.929Z,14.07
2022-10-11T23:20:27.686Z,12.63
2022-10-11T23:22:54.462Z,12.80
2022-10-11T23:25:21.145Z,12.27
2022-10-11T23:27:47.826Z,12.75
2022-10-11T23:30:14.956Z,11.68
2022-10-11T23:32:41.766Z,11.33
2022-10-11T23:35:08.607Z,11.80
2022-10-11T23:37:35.710Z,12.25
2022-10-11T23:40:03.290Z,12.52
2022-10-11T23:42:30.001Z,11.60
2022-10-11T23:44:56.720Z,11.33
2022-10-11T23:47:23.482Z,11.60
2022-10-11T23:49:50.208Z,12.18
2022-10-11T23:52:16.921Z,11.48
2022-10-11T23:54:43.697Z,12.00
2022-10-11T23:57:10.464Z,11.47
2022-10-11T23:59:37.183Z,12.05
